METAR rapporter

 

EKAH - Tirstrup (civ/Mi, Denmark
Afstand fra stationen: SSV 25km
Opdateret: 25/02/2020 12:20
Let regn, Regnbyger, Mest skyet
Let regn, Regnbyger, Mest skyet
 
Temperatur: 5°C
Dugpunkt: 3°C
Fugtighed: 87%
Barometer: 981 hPa
Oversigt: Let regn, Regnbyger
Skydække: Mest skyet
Sigtbarhed: 10 km
Skyhøjde: Mest skyet 518 m
2020/02/25 11:20 EKAH 251120Z AUTO ///// 9999NDV -SHRA BKN017/// 05/03 Q0981
EKYT - Alborg, Denmark
Afstand fra stationen: NV 91km
Opdateret: 25/02/2020 12:36
Overskyet
Overskyet
 Vind fra SSØ
Vind: SSØ 19 km/h
Temperatur: 5°C
Kuldeindeks: 1°C
Dugpunkt: 3°C
Fugtighed: 87%
Barometer: 978 hPa
Skydække: Overskyet
Sigtbarhed: 10 km
Skyhøjde: Få skyer 396 m
Delvist skyet 518 m
Mest skyet 671 m
Overskyet 975 m
2020/02/25 11:36 EKYT 251136Z AUTO 15010KT 9999 FEW013/// SCT017/// BKN022/// OVC032/// 05/03 Q0978
EKKA - Karup (dan-Afb), Denmark
Afstand fra stationen: V 107km
Opdateret: 25/02/2020 12:43
Mest skyet
Mest skyet
 Vind fra S
Vind: S 19 km/h
Temperatur: 5°C
Kuldeindeks: 1°C
Dugpunkt: 4°C
Fugtighed: 93%
Barometer: 975 hPa
Skydække: Mest skyet
Sigtbarhed: 6 km
Skyhøjde: Delvist skyet 213 m
Mest skyet 305 m
2020/02/25 11:43 EKKA 251143Z 19010KT 150V210 6000 SCT007 BKN010 05/04 Q0975 TEMPO 23015G28KT 2500 RADZ BKN008
 
EKOD - Odense/Beldringe, Denmark
Afstand fra stationen: SSV 116km
Opdateret: 25/02/2020 11:50
Mest skyet
Mest skyet
 Vind fra SV
Vind: SV 48 km/h, Vindstød: 78 km/h
Temperatur: 6°C
Kuldeindeks: 1°C
Dugpunkt: 4°C
Fugtighed: 87%
Barometer: 983 hPa
Skydække: Mest skyet
Sigtbarhed: 10 km
Skyhøjde: Få skyer 671 m
Mest skyet 914 m
2020/02/25 10:50 EKOD 251050Z 22026G42KT 9999 FEW022 BKN030 06/04 Q0983
EKBI - Billund Airport, Denmark
Afstand fra stationen: SV 134km
Opdateret: 25/02/2020 12:20
Let regn, Regnbyger, Delvist skyet
Let regn, Regnbyger, Delvist skyet
 Vind fra SV
Vind: SV 44 km/h, Vindstød: 76 km/h
Temperatur: 5°C
Kuldeindeks: -1°C
Dugpunkt: 2°C
Fugtighed: 81%
Barometer: 978 hPa
Oversigt: Let regn, Regnbyger
Skydække: Delvist skyet
Sigtbarhed: 6 km
Skyhøjde: Mest skyet 518 m
Delvist skyet 671 m
2020/02/25 11:20 EKBI 251120Z 22024G41KT 6000 -SHRA BKN017 SCT022CB 05/02 Q0978
EKCH - Copenhagen/Kastr, Denmark
Afstand fra stationen: SØ 148km
Opdateret: 25/02/2020 12:20
Mest skyet
Mest skyet
 Vind fra SV
Vind: SV 31 km/h
Temperatur: 7°C
Kuldeindeks: 3°C
Dugpunkt: 3°C
Fugtighed: 76%
Barometer: 987 hPa
Skydække: Mest skyet
Sigtbarhed: 10 km
Skyhøjde: Mest skyet 1006 m
2020/02/25 11:20 EKCH 251120Z AUTO 22017KT 9999 BKN033/// 07/03 Q0987 TEMPO 23018G28KT